Time;durP1;ratioP1;P1;durP2;ratioP2;P2;SDS_P1;SDS_P2;PMS_P1;PMS_P2;Temp;Humidity;BMP_temperature;BMP_pressure;BME280_temperature;BME280_humidity;BME280_pressure;Samples;Min_cycle;Max_cycle;Signal;HPM_P1;HPM_P2
2023/01/09 00:00:00;;;;;;;1.4;1.4;;;;;;;7.2;100.0;99180;;;;
2023/01/09 00:01:00;;;;;;;1.4;1.4;;;;;;;7.2;100.0;99190;;;;
2023/01/09 00:02:00;;;;;;;1.4;1.4;;;;;;;7.2;100.0;99190;;;;
2023/01/09 00:03:00;;;;;;;1.4;1.4;;;;;;;7.2;100.0;99190;;;;
2023/01/09 00:04:00;;;;;;;1.4;1.4;;;;;;;7.2;100.0;99190;;;;
2023/01/09 00:05:00;;;;;;;1.4;1.4;;;;;;;7.2;100.0;99180;;;;
2023/01/09 00:06:00;;;;;;;1.4;1.4;;;;;;;7.2;100.0;99180;;;;
2023/01/09 00:07:00;;;;;;;1.4;1.4;;;;;;;7.1;100.0;99180;;;;
2023/01/09 00:08:00;;;;;;;1.4;1.4;;;;;;;7.1;100.0;99180;;;;
2023/01/09 00:09:00;;;;;;;1.4;1.4;;;;;;;7.1;100.0;99180;;;;
2023/01/09 00:10:00;;;;;;;1.4;1.4;;;;;;;7.1;100.0;99180;;;;
2023/01/09 00:11:00;;;;;;;1.4;1.4;;;;;;;7.1;100.0;99180;;;;
2023/01/09 00:12:01;;;;;;;1.4;1.4;;;;;;;7.1;100.0;99180;;;;
2023/01/09 00:13:00;;;;;;;1.4;1.4;;;;;;;7.0;100.0;99180;;;;
2023/01/09 00:14:00;;;;;;;1.4;1.4;;;;;;;7.0;100.0;99180;;;;
2023/01/09 00:15:00;;;;;;;1.4;1.4;;;;;;;7.1;100.0;99180;;;;
2023/01/09 00:16:00;;;;;;;1.4;1.4;;;;;;;7.1;100.0;99180;;;;
2023/01/09 00:17:00;;;;;;;1.4;1.4;;;;;;;7.0;100.0;99180;;;;
2023/01/09 00:18:00;;;;;;;1.4;1.4;;;;;;;7.0;100.0;99180;;;;
2023/01/09 00:19:00;;;;;;;1.4;1.4;;;;;;;7.0;100.0;99170;;;;
2023/01/09 00:20:00;;;;;;;1.3;1.3;;;;;;;7.0;100.0;99170;;;;
2023/01/09 00:21:01;;;;;;;1.3;1.3;;;;;;;7.0;100.0;99170;;;;
2023/01/09 00:22:00;;;;;;;1.3;1.3;;;;;;;7.0;100.0;99170;;;;
2023/01/09 00:23:00;;;;;;;1.3;1.3;;;;;;;6.9;100.0;99180;;;;
2023/01/09 00:24:00;;;;;;;1.3;1.3;;;;;;;6.9;100.0;99180;;;;
2023/01/09 00:25:00;;;;;;;1.3;1.3;;;;;;;6.9;100.0;99190;;;;
2023/01/09 00:26:02;;;;;;;1.3;1.3;;;;;;;6.9;100.0;99190;;;;
2023/01/09 00:27:00;;;;;;;1.3;1.3;;;;;;;6.8;100.0;99190;;;;
2023/01/09 00:28:00;;;;;;;1.3;1.3;;;;;;;6.8;100.0;99190;;;;
2023/01/09 00:29:00;;;;;;;1.3;1.3;;;;;;;6.8;100.0;99190;;;;
2023/01/09 00:30:00;;;;;;;1.3;1.3;;;;;;;6.8;100.0;99190;;;;
2023/01/09 00:31:01;;;;;;;1.3;1.3;;;;;;;6.8;100.0;99190;;;;
2023/01/09 00:32:00;;;;;;;1.3;1.3;;;;;;;6.8;100.0;99190;;;;
2023/01/09 00:33:00;;;;;;;1.3;1.3;;;;;;;6.7;100.0;99190;;;;
2023/01/09 00:34:04;;;;;;;1.3;1.3;;;;;;;6.7;100.0;99190;;;;
2023/01/09 00:35:01;;;;;;;1.3;1.3;;;;;;;6.7;100.0;99190;;;;
2023/01/09 00:36:00;;;;;;;1.3;1.3;;;;;;;6.7;100.0;99190;;;;
2023/01/09 00:37:00;;;;;;;1.3;1.3;;;;;;;6.6;100.0;99200;;;;
2023/01/09 00:38:02;;;;;;;1.3;1.3;;;;;;;6.6;100.0;99200;;;;
2023/01/09 00:39:00;;;;;;;1.3;1.3;;;;;;;6.6;100.0;99190;;;;
2023/01/09 00:40:00;;;;;;;1.4;1.4;;;;;;;6.6;100.0;99190;;;;
2023/01/09 00:41:00;;;;;;;1.4;1.4;;;;;;;6.6;100.0;99200;;;;
2023/01/09 00:42:00;;;;;;;1.4;1.4;;;;;;;6.6;100.0;99200;;;;
2023/01/09 00:43:00;;;;;;;1.4;1.4;;;;;;;6.6;100.0;99200;;;;
2023/01/09 00:44:03;;;;;;;1.4;1.4;;;;;;;6.6;100.0;99200;;;;
2023/01/09 00:45:02;;;;;;;1.4;1.4;;;;;;;6.6;100.0;99200;;;;
2023/01/09 00:46:03;;;;;;;1.4;1.4;;;;;;;6.6;100.0;99200;;;;
2023/01/09 00:47:04;;;;;;;1.4;1.4;;;;;;;6.6;100.0;99190;;;;
2023/01/09 00:48:02;;;;;;;1.4;1.4;;;;;;;6.6;100.0;99190;;;;
2023/01/09 00:49:02;;;;;;;1.4;1.4;;;;;;;6.5;100.0;99190;;;;
2023/01/09 00:50:04;;;;;;;1.4;1.4;;;;;;;6.5;100.0;99190;;;;
2023/01/09 00:51:00;;;;;;;1.4;1.4;;;;;;;6.4;100.0;99200;;;;
2023/01/09 00:52:01;;;;;;;1.4;1.4;;;;;;;6.4;100.0;99200;;;;
2023/01/09 00:53:04;;;;;;;1.4;1.4;;;;;;;6.4;100.0;99190;;;;
2023/01/09 00:54:01;;;;;;;1.4;1.4;;;;;;;6.4;100.0;99190;;;;
2023/01/09 00:55:01;;;;;;;1.4;1.4;;;;;;;6.4;100.0;99190;;;;
2023/01/09 00:56:03;;;;;;;1.4;1.4;;;;;;;6.4;100.0;99190;;;;
2023/01/09 00:57:00;;;;;;;1.4;1.4;;;;;;;6.2;100.0;99200;;;;
2023/01/09 00:58:01;;;;;;;1.4;1.4;;;;;;;6.2;100.0;99200;;;;
2023/01/09 00:59:01;;;;;;;1.4;1.4;;;;;;;6.2;100.0;99200;;;;
2023/01/09 01:00:00;;;;;;;1.4;1.4;;;;;;;6.2;100.0;99200;;;;
2023/01/09 01:01:01;;;;;;;1.4;1.4;;;;;;;6.2;100.0;99210;;;;
2023/01/09 01:02:00;;;;;;;1.4;1.4;;;;;;;6.2;100.0;99210;;;;
2023/01/09 01:03:00;;;;;;;1.4;1.4;;;;;;;6.2;100.0;99210;;;;
2023/01/09 01:07:37;;;;;;;1.4;1.4;;;;;;;6.2;100.0;99210;;;;
2023/01/09 01:08:00;;;;;;;1.4;1.4;;;;;;;6.2;100.0;99210;;;;
2023/01/09 01:09:00;;;;;;;1.4;1.4;;;;;;;6.2;100.0;99210;;;;
2023/01/09 01:10:00;;;;;;;1.4;1.4;;;;;;;6.2;100.0;99210;;;;
2023/01/09 01:11:04;;;;;;;1.4;1.4;;;;;;;6.2;100.0;99210;;;;
2023/01/09 01:12:00;;;;;;;1.4;1.4;;;;;;;6.2;100.0;99210;;;;
2023/01/09 01:13:00;;;;;;;1.4;1.4;;;;;;;6.1;100.0;99220;;;;
2023/01/09 01:14:00;;;;;;;1.4;1.4;;;;;;;6.1;100.0;99220;;;;
2023/01/09 01:15:00;;;;;;;1.4;1.4;;;;;;;6.1;100.0;99220;;;;
2023/01/09 01:16:03;;;;;;;1.4;1.4;;;;;;;6.1;100.0;99220;;;;
2023/01/09 01:17:00;;;;;;;1.4;1.4;;;;;;;6.1;100.0;99220;;;;
2023/01/09 01:18:00;;;;;;;1.4;1.4;;;;;;;6.1;100.0;99220;;;;
2023/01/09 01:19:00;;;;;;;1.4;1.4;;;;;;;6.0;100.0;99220;;;;
2023/01/09 01:20:00;;;;;;;1.6;1.6;;;;;;;6.0;100.0;99220;;;;
2023/01/09 01:21:04;;;;;;;1.6;1.6;;;;;;;6.0;100.0;99220;;;;
2023/01/09 01:22:00;;;;;;;1.6;1.6;;;;;;;6.0;100.0;99220;;;;
2023/01/09 01:23:00;;;;;;;1.6;1.6;;;;;;;6.0;100.0;99220;;;;
2023/01/09 01:24:00;;;;;;;1.6;1.6;;;;;;;6.0;100.0;99220;;;;
2023/01/09 01:25:00;;;;;;;1.6;1.6;;;;;;;5.9;100.0;99220;;;;
2023/01/09 01:26:09;;;;;;;1.6;1.6;;;;;;;5.9;100.0;99220;;;;
2023/01/09 01:27:00;;;;;;;1.6;1.6;;;;;;;5.9;100.0;99220;;;;
2023/01/09 01:28:00;;;;;;;1.6;1.6;;;;;;;5.9;100.0;99220;;;;
2023/01/09 01:29:00;;;;;;;1.6;1.6;;;;;;;5.9;100.0;99220;;;;
2023/01/09 01:30:00;;;;;;;1.6;1.6;;;;;;;5.9;100.0;99220;;;;
2023/01/09 01:31:01;;;;;;;1.6;1.6;;;;;;;5.9;100.0;99220;;;;
2023/01/09 01:32:00;;;;;;;1.6;1.6;;;;;;;5.9;100.0;99220;;;;
2023/01/09 01:33:00;;;;;;;1.6;1.6;;;;;;;5.8;100.0;99220;;;;
2023/01/09 01:34:00;;;;;;;1.6;1.6;;;;;;;5.8;100.0;99220;;;;
2023/01/09 01:35:00;;;;;;;1.6;1.6;;;;;;;5.8;100.0;99230;;;;
2023/01/09 01:36:01;;;;;;;1.6;1.6;;;;;;;5.8;100.0;99230;;;;
2023/01/09 01:37:00;;;;;;;1.6;1.6;;;;;;;5.8;100.0;99230;;;;
2023/01/09 01:38:00;;;;;;;1.6;1.6;;;;;;;5.8;100.0;99230;;;;
2023/01/09 01:39:00;;;;;;;1.6;1.6;;;;;;;5.9;100.0;99230;;;;
2023/01/09 01:40:00;;;;;;;1.6;1.6;;;;;;;5.9;100.0;99230;;;;
2023/01/09 01:41:01;;;;;;;1.6;1.6;;;;;;;5.8;100.0;99220;;;;
2023/01/09 01:42:02;;;;;;;1.6;1.6;;;;;;;5.8;100.0;99220;;;;
2023/01/09 01:43:00;;;;;;;1.6;1.6;;;;;;;5.7;100.0;99220;;;;
2023/01/09 01:44:02;;;;;;;1.6;1.6;;;;;;;5.7;100.0;99220;;;;
2023/01/09 01:45:03;;;;;;;1.6;1.6;;;;;;;5.7;100.0;99220;;;;
2023/01/09 01:46:00;;;;;;;1.6;1.6;;;;;;;5.7;100.0;99220;;;;
2023/01/09 01:47:00;;;;;;;1.6;1.6;;;;;;;5.7;100.0;99230;;;;
2023/01/09 01:48:06;;;;;;;1.6;1.6;;;;;;;5.7;100.0;99230;;;;
2023/01/09 01:49:08;;;;;;;1.6;1.6;;;;;;;5.7;100.0;99220;;;;
2023/01/09 01:50:03;;;;;;;1.6;1.6;;;;;;;5.7;100.0;99220;;;;
2023/01/09 01:51:04;;;;;;;1.6;1.6;;;;;;;5.7;100.0;99220;;;;
2023/01/09 01:52:00;;;;;;;1.6;1.6;;;;;;;5.7;100.0;99220;;;;
2023/01/09 01:53:06;;;;;;;1.6;1.6;;;;;;;5.7;100.0;99230;;;;
2023/01/09 01:54:02;;;;;;;1.6;1.6;;;;;;;5.7;100.0;99230;;;;
2023/01/09 01:55:00;;;;;;;1.6;1.6;;;;;;;5.7;100.0;99220;;;;
2023/01/09 01:56:07;;;;;;;1.6;1.6;;;;;;;5.7;100.0;99220;;;;
2023/01/09 01:57:02;;;;;;;1.6;1.6;;;;;;;5.5;100.0;99220;;;;
2023/01/09 01:58:03;;;;;;;1.6;1.6;;;;;;;5.5;100.0;99220;;;;
2023/01/09 01:59:06;;;;;;;1.6;1.6;;;;;;;5.7;100.0;99230;;;;
2023/01/09 02:00:02;;;;;;;1.6;1.6;;;;;;;5.7;100.0;99230;;;;
2023/01/09 02:01:01;;;;;;;1.6;1.6;;;;;;;5.6;100.0;99220;;;;
2023/01/09 02:02:01;;;;;;;1.6;1.6;;;;;;;5.6;100.0;99220;;;;
2023/01/09 02:03:01;;;;;;;1.6;1.6;;;;;;;5.6;100.0;99230;;;;
2023/01/09 02:04:01;;;;;;;1.6;1.6;;;;;;;5.6;100.0;99230;;;;
2023/01/09 02:05:00;;;;;;;1.6;1.6;;;;;;;5.6;100.0;99230;;;;
2023/01/09 02:06:03;;;;;;;1.6;1.6;;;;;;;5.6;100.0;99230;;;;
2023/01/09 02:07:02;;;;;;;1.6;1.6;;;;;;;5.5;100.0;99230;;;;
2023/01/09 02:08:00;;;;;;;1.6;1.6;;;;;;;5.5;100.0;99230;;;;
2023/01/09 02:09:03;;;;;;;1.6;1.6;;;;;;;5.5;100.0;99230;;;;
2023/01/09 02:10:00;;;;;;;1.6;1.6;;;;;;;5.5;100.0;99230;;;;
2023/01/09 02:11:01;;;;;;;1.6;1.6;;;;;;;5.4;100.0;99240;;;;
2023/01/09 02:12:00;;;;;;;1.6;1.6;;;;;;;5.4;100.0;99240;;;;
2023/01/09 02:13:01;;;;;;;1.6;1.6;;;;;;;5.4;100.0;99240;;;;
2023/01/09 02:14:01;;;;;;;1.6;1.6;;;;;;;5.4;100.0;99240;;;;
2023/01/09 02:15:04;;;;;;;1.6;1.6;;;;;;;5.5;100.0;99250;;;;
2023/01/09 02:16:09;;;;;;;1.6;1.6;;;;;;;5.5;100.0;99250;;;;
2023/01/09 02:17:07;;;;;;;1.6;1.6;;;;;;;5.5;100.0;99240;;;;
2023/01/09 02:18:00;;;;;;;1.6;1.6;;;;;;;5.5;100.0;99240;;;;
2023/01/09 02:19:10;;;;;;;1.6;1.6;;;;;;;5.4;100.0;99240;;;;
2023/01/09 02:20:10;;;;;;;1.7;1.7;;;;;;;5.4;100.0;99240;;;;
2023/01/09 02:21:10;;;;;;;1.7;1.7;;;;;;;5.5;100.0;99240;;;;
2023/01/09 02:22:12;;;;;;;1.7;1.7;;;;;;;5.5;100.0;99240;;;;
2023/01/09 02:23:10;;;;;;;1.7;1.7;;;;;;;5.4;100.0;99250;;;;
2023/01/09 02:24:00;;;;;;;1.7;1.7;;;;;;;5.4;100.0;99250;;;;
2023/01/09 02:25:10;;;;;;;1.7;1.7;;;;;;;5.4;100.0;99250;;;;
2023/01/09 02:26:00;;;;;;;1.7;1.7;;;;;;;5.4;100.0;99250;;;;
2023/01/09 02:27:03;;;;;;;1.7;1.7;;;;;;;5.5;100.0;99240;;;;
2023/01/09 02:28:10;;;;;;;1.7;1.7;;;;;;;5.5;100.0;99240;;;;
2023/01/09 02:29:08;;;;;;;1.7;1.7;;;;;;;5.5;100.0;99240;;;;
2023/01/09 02:30:10;;;;;;;1.7;1.7;;;;;;;5.5;100.0;99240;;;;
2023/01/09 02:31:10;;;;;;;1.7;1.7;;;;;;;5.3;100.0;99240;;;;
2023/01/09 02:32:10;;;;;;;1.7;1.7;;;;;;;5.3;100.0;99240;;;;
2023/01/09 02:33:08;;;;;;;1.7;1.7;;;;;;;5.4;100.0;99240;;;;
2023/01/09 02:34:08;;;;;;;1.7;1.7;;;;;;;5.4;100.0;99240;;;;
2023/01/09 02:35:06;;;;;;;1.7;1.7;;;;;;;5.4;100.0;99240;;;;
2023/01/09 02:36:03;;;;;;;1.7;1.7;;;;;;;5.4;100.0;99240;;;;
2023/01/09 02:37:07;;;;;;;1.7;1.7;;;;;;;5.4;100.0;99250;;;;
2023/01/09 02:38:10;;;;;;;1.7;1.7;;;;;;;5.4;100.0;99250;;;;
2023/01/09 02:39:00;;;;;;;1.7;1.7;;;;;;;5.3;100.0;99250;;;;
2023/01/09 02:40:10;;;;;;;1.7;1.7;;;;;;;5.3;100.0;99250;;;;
2023/01/09 02:41:05;;;;;;;1.7;1.7;;;;;;;5.3;100.0;99250;;;;
2023/01/09 02:42:06;;;;;;;1.7;1.7;;;;;;;5.3;100.0;99250;;;;
2023/01/09 02:43:01;;;;;;;1.7;1.7;;;;;;;5.3;100.0;99260;;;;
2023/01/09 02:44:10;;;;;;;1.7;1.7;;;;;;;5.3;100.0;99260;;;;
2023/01/09 02:45:00;;;;;;;1.7;1.7;;;;;;;5.3;100.0;99250;;;;
2023/01/09 02:46:00;;;;;;;1.7;1.7;;;;;;;5.3;100.0;99250;;;;
2023/01/09 02:47:02;;;;;;;1.7;1.7;;;;;;;5.3;100.0;99260;;;;
2023/01/09 02:48:00;;;;;;;1.7;1.7;;;;;;;5.3;100.0;99260;;;;
2023/01/09 02:49:00;;;;;;;1.7;1.7;;;;;;;5.3;100.0;99250;;;;
2023/01/09 02:50:02;;;;;;;1.7;1.7;;;;;;;5.3;100.0;99250;;;;
2023/01/09 02:51:08;;;;;;;1.7;1.7;;;;;;;5.3;100.0;99250;;;;
2023/01/09 02:52:03;;;;;;;1.7;1.7;;;;;;;5.3;100.0;99250;;;;
2023/01/09 02:53:01;;;;;;;1.7;1.7;;;;;;;5.3;100.0;99240;;;;
2023/01/09 02:54:07;;;;;;;1.7;1.7;;;;;;;5.3;100.0;99240;;;;
2023/01/09 02:55:10;;;;;;;1.7;1.7;;;;;;;5.2;100.0;99240;;;;
2023/01/09 02:56:10;;;;;;;1.7;1.7;;;;;;;5.2;100.0;99240;;;;
2023/01/09 02:57:10;;;;;;;1.7;1.7;;;;;;;5.3;100.0;99250;;;;
2023/01/09 02:58:10;;;;;;;1.7;1.7;;;;;;;5.3;100.0;99250;;;;
2023/01/09 02:59:00;;;;;;;1.7;1.7;;;;;;;5.2;100.0;99240;;;;
2023/01/09 03:00:01;;;;;;;1.7;1.7;;;;;;;5.2;100.0;99240;;;;
2023/01/09 03:01:01;;;;;;;1.7;1.7;;;;;;;5.2;100.0;99250;;;;
2023/01/09 03:02:06;;;;;;;1.7;1.7;;;;;;;5.2;100.0;99250;;;;
2023/01/09 03:03:02;;;;;;;1.7;1.7;;;;;;;5.2;100.0;99250;;;;
2023/01/09 03:04:03;;;;;;;1.7;1.7;;;;;;;5.2;100.0;99250;;;;
2023/01/09 03:05:07;;;;;;;1.7;1.7;;;;;;;5.1;100.0;99250;;;;
2023/01/09 03:06:07;;;;;;;1.7;1.7;;;;;;;5.1;100.0;99250;;;;
2023/01/09 03:07:01;;;;;;;1.7;1.7;;;;;;;5.2;100.0;99240;;;;
2023/01/09 03:08:03;;;;;;;1.7;1.7;;;;;;;5.2;100.0;99240;;;;
2023/01/09 03:09:04;;;;;;;1.7;1.7;;;;;;;5.2;100.0;99240;;;;
2023/01/09 03:10:07;;;;;;;1.7;1.7;;;;;;;5.2;100.0;99240;;;;
2023/01/09 03:11:03;;;;;;;1.7;1.7;;;;;;;5.2;100.0;99230;;;;
2023/01/09 03:12:03;;;;;;;1.7;1.7;;;;;;;5.2;100.0;99230;;;;
2023/01/09 03:13:01;;;;;;;1.7;1.7;;;;;;;5.2;100.0;99230;;;;
2023/01/09 03:14:04;;;;;;;1.7;1.7;;;;;;;5.2;100.0;99230;;;;
2023/01/09 03:15:01;;;;;;;1.7;1.7;;;;;;;5.2;100.0;99230;;;;
2023/01/09 03:16:04;;;;;;;1.7;1.7;;;;;;;5.2;100.0;99230;;;;
2023/01/09 03:17:02;;;;;;;1.7;1.7;;;;;;;5.1;100.0;99230;;;;
2023/01/09 03:18:03;;;;;;;1.7;1.7;;;;;;;5.1;100.0;99230;;;;
2023/01/09 03:19:02;;;;;;;1.7;1.7;;;;;;;5.1;100.0;99230;;;;
2023/01/09 03:20:02;;;;;;;1.8;1.8;;;;;;;5.1;100.0;99230;;;;
2023/01/09 03:21:01;;;;;;;1.8;1.8;;;;;;;5.2;100.0;99230;;;;
2023/01/09 03:22:00;;;;;;;1.8;1.8;;;;;;;5.2;100.0;99230;;;;
2023/01/09 03:23:01;;;;;;;1.8;1.8;;;;;;;5.2;100.0;99230;;;;
2023/01/09 03:24:01;;;;;;;1.8;1.8;;;;;;;5.2;100.0;99230;;;;
2023/01/09 03:25:00;;;;;;;1.8;1.8;;;;;;;5.1;100.0;99230;;;;
2023/01/09 03:26:00;;;;;;;1.8;1.8;;;;;;;5.1;100.0;99230;;;;
2023/01/09 03:27:01;;;;;;;1.8;1.8;;;;;;;5.2;100.0;99230;;;;
2023/01/09 03:28:02;;;;;;;1.8;1.8;;;;;;;5.2;100.0;99230;;;;
2023/01/09 03:29:00;;;;;;;1.8;1.8;;;;;;;5.1;100.0;99230;;;;
2023/01/09 03:30:00;;;;;;;1.8;1.8;;;;;;;5.1;100.0;99230;;;;
2023/01/09 03:31:00;;;;;;;1.8;1.8;;;;;;;5.1;100.0;99230;;;;
2023/01/09 03:32:00;;;;;;;1.8;1.8;;;;;;;5.1;100.0;99230;;;;
2023/01/09 03:33:00;;;;;;;1.8;1.8;;;;;;;5.1;100.0;99240;;;;
2023/01/09 03:34:00;;;;;;;1.8;1.8;;;;;;;5.1;100.0;99240;;;;
2023/01/09 03:35:01;;;;;;;1.8;1.8;;;;;;;5.1;100.0;99230;;;;
2023/01/09 03:36:00;;;;;;;1.8;1.8;;;;;;;5.1;100.0;99230;;;;
2023/01/09 03:37:00;;;;;;;1.8;1.8;;;;;;;5.1;100.0;99240;;;;
2023/01/09 03:38:00;;;;;;;1.8;1.8;;;;;;;5.1;100.0;99240;;;;
2023/01/09 03:39:00;;;;;;;1.8;1.8;;;;;;;5.1;100.0;99240;;;;
2023/01/09 03:40:00;;;;;;;1.6;1.6;;;;;;;5.1;100.0;99240;;;;
2023/01/09 03:41:00;;;;;;;1.6;1.6;;;;;;;5.1;100.0;99240;;;;
2023/01/09 03:42:00;;;;;;;1.6;1.6;;;;;;;5.1;100.0;99240;;;;
2023/01/09 03:43:00;;;;;;;1.6;1.6;;;;;;;5.0;100.0;99240;;;;
2023/01/09 03:44:00;;;;;;;1.6;1.6;;;;;;;5.0;100.0;99240;;;;
2023/01/09 03:45:00;;;;;;;1.6;1.6;;;;;;;5.1;100.0;99240;;;;
2023/01/09 03:46:01;;;;;;;1.6;1.6;;;;;;;5.1;100.0;99240;;;;
2023/01/09 03:47:00;;;;;;;1.6;1.6;;;;;;;5.1;100.0;99240;;;;
2023/01/09 03:48:00;;;;;;;1.6;1.6;;;;;;;5.1;100.0;99240;;;;
2023/01/09 03:49:00;;;;;;;1.6;1.6;;;;;;;5.1;100.0;99240;;;;
2023/01/09 03:50:00;;;;;;;1.6;1.6;;;;;;;5.1;100.0;99240;;;;
2023/01/09 03:51:00;;;;;;;1.6;1.6;;;;;;;5.0;100.0;99240;;;;
2023/01/09 03:52:00;;;;;;;1.6;1.6;;;;;;;5.0;100.0;99240;;;;
2023/01/09 03:53:00;;;;;;;1.6;1.6;;;;;;;5.0;100.0;99240;;;;
2023/01/09 03:54:00;;;;;;;1.6;1.6;;;;;;;5.0;100.0;99240;;;;
2023/01/09 03:55:00;;;;;;;1.6;1.6;;;;;;;4.9;100.0;99240;;;;
2023/01/09 03:56:00;;;;;;;1.6;1.6;;;;;;;4.9;100.0;99240;;;;
2023/01/09 03:57:00;;;;;;;1.6;1.6;;;;;;;4.9;100.0;99240;;;;
2023/01/09 03:58:00;;;;;;;1.6;1.6;;;;;;;4.9;100.0;99240;;;;
2023/01/09 03:59:00;;;;;;;1.6;1.6;;;;;;;4.9;100.0;99240;;;;
2023/01/09 04:00:00;;;;;;;1.7;1.7;;;;;;;4.9;100.0;99240;;;;
2023/01/09 04:01:02;;;;;;;1.7;1.7;;;;;;;4.9;100.0;99240;;;;
2023/01/09 04:02:03;;;;;;;1.7;1.7;;;;;;;4.9;100.0;99240;;;;
2023/01/09 04:03:00;;;;;;;1.7;1.7;;;;;;;4.9;100.0;99240;;;;
2023/01/09 04:04:00;;;;;;;1.7;1.7;;;;;;;4.9;100.0;99240;;;;
2023/01/09 04:05:00;;;;;;;1.7;1.7;;;;;;;4.9;100.0;99240;;;;
2023/01/09 04:06:00;;;;;;;1.7;1.7;;;;;;;4.9;100.0;99240;;;;
2023/01/09 04:07:00;;;;;;;1.7;1.7;;;;;;;4.9;100.0;99240;;;;
2023/01/09 04:08:00;;;;;;;1.7;1.7;;;;;;;4.9;100.0;99240;;;;
2023/01/09 04:09:00;;;;;;;1.7;1.7;;;;;;;4.8;100.0;99240;;;;
2023/01/09 04:10:00;;;;;;;1.7;1.7;;;;;;;4.8;100.0;99240;;;;
2023/01/09 04:11:00;;;;;;;1.7;1.7;;;;;;;4.9;100.0;99230;;;;
2023/01/09 04:12:00;;;;;;;1.7;1.7;;;;;;;4.9;100.0;99230;;;;
2023/01/09 04:13:00;;;;;;;1.7;1.7;;;;;;;4.9;100.0;99240;;;;
2023/01/09 04:14:00;;;;;;;1.7;1.7;;;;;;;4.9;100.0;99240;;;;
2023/01/09 04:15:00;;;;;;;1.7;1.7;;;;;;;4.9;100.0;99240;;;;
2023/01/09 04:16:00;;;;;;;1.7;1.7;;;;;;;4.9;100.0;99240;;;;
2023/01/09 04:17:00;;;;;;;1.7;1.7;;;;;;;4.9;100.0;99240;;;;
2023/01/09 04:18:00;;;;;;;1.7;1.7;;;;;;;4.9;100.0;99240;;;;
2023/01/09 04:19:00;;;;;;;1.7;1.7;;;;;;;4.9;100.0;99240;;;;
2023/01/09 04:20:00;;;;;;;1.7;1.7;;;;;;;4.9;100.0;99240;;;;
2023/01/09 04:21:00;;;;;;;1.7;1.7;;;;;;;4.9;100.0;99240;;;;
2023/01/09 04:22:00;;;;;;;1.7;1.7;;;;;;;4.9;100.0;99240;;;;
2023/01/09 04:23:00;;;;;;;1.7;1.7;;;;;;;4.9;100.0;99240;;;;
2023/01/09 04:24:01;;;;;;;1.7;1.7;;;;;;;4.9;100.0;99240;;;;
2023/01/09 04:25:00;;;;;;;1.7;1.7;;;;;;;5.0;100.0;99240;;;;
2023/01/09 04:26:00;;;;;;;1.7;1.7;;;;;;;5.0;100.0;99240;;;;
2023/01/09 04:27:00;;;;;;;1.7;1.7;;;;;;;5.0;100.0;99230;;;;
2023/01/09 04:28:00;;;;;;;1.7;1.7;;;;;;;5.0;100.0;99230;;;;
2023/01/09 04:29:00;;;;;;;1.7;1.7;;;;;;;5.0;100.0;99240;;;;
2023/01/09 04:30:00;;;;;;;1.7;1.7;;;;;;;5.0;100.0;99240;;;;
2023/01/09 04:31:01;;;;;;;1.7;1.7;;;;;;;4.9;100.0;99240;;;;
2023/01/09 04:32:00;;;;;;;1.7;1.7;;;;;;;4.9;100.0;99240;;;;
2023/01/09 04:33:00;;;;;;;1.7;1.7;;;;;;;4.9;100.0;99240;;;;
2023/01/09 04:34:00;;;;;;;1.7;1.7;;;;;;;4.9;100.0;99240;;;;
2023/01/09 04:35:00;;;;;;;1.7;1.7;;;;;;;4.9;100.0;99240;;;;
2023/01/09 04:36:00;;;;;;;1.7;1.7;;;;;;;4.9;100.0;99240;;;;
2023/01/09 04:37:00;;;;;;;1.7;1.7;;;;;;;4.9;100.0;99240;;;;
2023/01/09 04:38:00;;;;;;;1.7;1.7;;;;;;;4.9;100.0;99240;;;;
2023/01/09 04:39:00;;;;;;;1.7;1.7;;;;;;;4.9;100.0;99250;;;;
2023/01/09 04:40:01;;;;;;;1.7;1.7;;;;;;;4.9;100.0;99250;;;;
2023/01/09 04:41:00;;;;;;;1.7;1.7;;;;;;;5.0;100.0;99250;;;;
2023/01/09 04:42:00;;;;;;;1.7;1.7;;;;;;;5.0;100.0;99250;;;;
2023/01/09 04:43:00;;;;;;;1.7;1.7;;;;;;;5.0;100.0;99250;;;;
2023/01/09 04:44:00;;;;;;;1.7;1.7;;;;;;;5.0;100.0;99250;;;;
2023/01/09 04:45:00;;;;;;;1.7;1.7;;;;;;;5.0;100.0;99250;;;;
2023/01/09 04:46:01;;;;;;;1.7;1.7;;;;;;;5.0;100.0;99250;;;;
2023/01/09 04:47:00;;;;;;;1.7;1.7;;;;;;;5.1;100.0;99250;;;;
2023/01/09 04:48:00;;;;;;;1.7;1.7;;;;;;;5.1;100.0;99250;;;;
2023/01/09 04:49:00;;;;;;;1.7;1.7;;;;;;;5.1;100.0;99250;;;;
2023/01/09 04:50:01;;;;;;;1.7;1.7;;;;;;;5.1;100.0;99250;;;;
2023/01/09 04:51:00;;;;;;;1.7;1.7;;;;;;;5.2;100.0;99260;;;;
2023/01/09 04:52:00;;;;;;;1.7;1.7;;;;;;;5.2;100.0;99260;;;;
2023/01/09 04:53:00;;;;;;;1.7;1.7;;;;;;;5.2;100.0;99260;;;;
2023/01/09 04:54:00;;;;;;;1.7;1.7;;;;;;;5.2;100.0;99260;;;;
2023/01/09 04:55:00;;;;;;;1.7;1.7;;;;;;;5.3;100.0;99260;;;;
2023/01/09 04:56:01;;;;;;;1.7;1.7;;;;;;;5.3;100.0;99260;;;;
2023/01/09 04:57:00;;;;;;;1.7;1.7;;;;;;;5.4;100.0;99250;;;;
2023/01/09 04:58:00;;;;;;;1.7;1.7;;;;;;;5.4;100.0;99250;;;;
2023/01/09 04:59:00;;;;;;;1.7;1.7;;;;;;;5.3;100.0;99250;;;;
2023/01/09 05:00:00;;;;;;;1.7;1.7;;;;;;;5.3;100.0;99250;;;;
2023/01/09 05:01:00;;;;;;;1.7;1.7;;;;;;;5.3;100.0;99250;;;;
2023/01/09 05:02:01;;;;;;;1.7;1.7;;;;;;;5.3;100.0;99250;;;;
2023/01/09 05:03:01;;;;;;;1.7;1.7;;;;;;;5.4;100.0;99250;;;;
2023/01/09 05:04:00;;;;;;;1.7;1.7;;;;;;;5.4;100.0;99250;;;;
2023/01/09 05:05:00;;;;;;;1.7;1.7;;;;;;;5.6;100.0;99250;;;;
2023/01/09 05:06:00;;;;;;;1.7;1.7;;;;;;;5.6;100.0;99250;;;;
2023/01/09 05:07:00;;;;;;;1.7;1.7;;;;;;;5.5;100.0;99260;;;;
2023/01/09 05:08:00;;;;;;;1.7;1.7;;;;;;;5.5;100.0;99260;;;;
2023/01/09 05:09:00;;;;;;;1.7;1.7;;;;;;;5.6;100.0;99260;;;;
2023/01/09 05:10:00;;;;;;;1.7;1.7;;;;;;;5.6;100.0;99260;;;;
2023/01/09 05:11:00;;;;;;;1.7;1.7;;;;;;;5.6;100.0;99250;;;;
2023/01/09 05:12:02;;;;;;;1.7;1.7;;;;;;;5.6;100.0;99250;;;;
2023/01/09 05:13:00;;;;;;;1.7;1.7;;;;;;;5.6;100.0;99250;;;;
2023/01/09 05:14:00;;;;;;;1.7;1.7;;;;;;;5.6;100.0;99250;;;;
2023/01/09 05:15:01;;;;;;;1.7;1.7;;;;;;;5.6;100.0;99240;;;;
2023/01/09 05:16:00;;;;;;;1.7;1.7;;;;;;;5.6;100.0;99240;;;;
2023/01/09 05:17:00;;;;;;;1.7;1.7;;;;;;;5.6;100.0;99250;;;;
2023/01/09 05:18:00;;;;;;;1.7;1.7;;;;;;;5.6;100.0;99250;;;;
2023/01/09 05:19:00;;;;;;;1.9;1.9;;;;;;;5.6;100.0;99250;;;;
2023/01/09 05:20:00;;;;;;;1.9;1.9;;;;;;;5.6;100.0;99250;;;;
2023/01/09 05:21:00;;;;;;;1.9;1.9;;;;;;;5.6;100.0;99250;;;;
2023/01/09 05:22:00;;;;;;;1.9;1.9;;;;;;;5.6;100.0;99250;;;;
2023/01/09 05:23:00;;;;;;;1.9;1.9;;;;;;;5.7;100.0;99250;;;;
2023/01/09 05:24:00;;;;;;;1.9;1.9;;;;;;;5.7;100.0;99250;;;;
2023/01/09 05:25:00;;;;;;;1.9;1.9;;;;;;;5.7;100.0;99250;;;;
2023/01/09 05:26:00;;;;;;;1.9;1.9;;;;;;;5.7;100.0;99250;;;;
2023/01/09 05:27:01;;;;;;;1.9;1.9;;;;;;;5.7;100.0;99240;;;;
2023/01/09 05:28:00;;;;;;;1.9;1.9;;;;;;;5.7;100.0;99240;;;;
2023/01/09 05:29:00;;;;;;;1.9;1.9;;;;;;;5.8;100.0;99240;;;;
2023/01/09 05:30:00;;;;;;;1.9;1.9;;;;;;;5.8;100.0;99240;;;;
2023/01/09 05:31:00;;;;;;;1.9;1.9;;;;;;;5.7;100.0;99240;;;;
2023/01/09 05:32:00;;;;;;;1.9;1.9;;;;;;;5.7;100.0;99240;;;;
2023/01/09 05:33:00;;;;;;;1.9;1.9;;;;;;;5.8;100.0;99240;;;;
2023/01/09 05:34:00;;;;;;;1.9;1.9;;;;;;;5.8;100.0;99240;;;;
2023/01/09 05:35:00;;;;;;;1.9;1.9;;;;;;;5.8;100.0;99240;;;;
2023/01/09 05:36:00;;;;;;;1.9;1.9;;;;;;;5.8;100.0;99240;;;;
2023/01/09 05:37:00;;;;;;;1.9;1.9;;;;;;;5.9;100.0;99230;;;;
2023/01/09 05:38:00;;;;;;;1.9;1.9;;;;;;;5.9;100.0;99230;;;;
2023/01/09 05:39:01;;;;;;;1.5;1.5;;;;;;;5.8;100.0;99230;;;;
2023/01/09 05:40:00;;;;;;;1.5;1.5;;;;;;;5.8;100.0;99230;;;;
2023/01/09 05:41:00;;;;;;;1.5;1.5;;;;;;;5.8;100.0;99230;;;;
2023/01/09 05:42:00;;;;;;;1.5;1.5;;;;;;;5.8;100.0;99230;;;;
2023/01/09 05:43:00;;;;;;;1.5;1.5;;;;;;;5.8;100.0;99230;;;;
2023/01/09 05:44:00;;;;;;;1.5;1.5;;;;;;;5.8;100.0;99230;;;;
2023/01/09 05:45:00;;;;;;;1.5;1.5;;;;;;;5.8;100.0;99230;;;;
2023/01/09 05:46:00;;;;;;;1.5;1.5;;;;;;;5.8;100.0;99230;;;;
2023/01/09 05:47:02;;;;;;;1.5;1.5;;;;;;;5.9;100.0;99230;;;;
2023/01/09 05:48:00;;;;;;;1.5;1.5;;;;;;;5.9;100.0;99230;;;;
2023/01/09 05:49:00;;;;;;;1.5;1.5;;;;;;;5.9;100.0;99230;;;;
2023/01/09 05:50:00;;;;;;;1.5;1.5;;;;;;;5.9;100.0;99230;;;;
2023/01/09 05:51:00;;;;;;;1.5;1.5;;;;;;;5.9;100.0;99230;;;;
2023/01/09 05:52:00;;;;;;;1.5;1.5;;;;;;;5.9;100.0;99230;;;;
2023/01/09 05:53:00;;;;;;;1.5;1.5;;;;;;;5.9;100.0;99220;;;;
2023/01/09 05:54:01;;;;;;;1.5;1.5;;;;;;;5.9;100.0;99220;;;;
2023/01/09 05:55:00;;;;;;;1.5;1.5;;;;;;;5.9;100.0;99220;;;;
2023/01/09 05:56:00;;;;;;;1.5;1.5;;;;;;;5.9;100.0;99220;;;;
2023/01/09 05:57:00;;;;;;;1.5;1.5;;;;;;;5.9;100.0;99220;;;;
2023/01/09 05:58:00;;;;;;;1.5;1.5;;;;;;;5.9;100.0;99220;;;;
2023/01/09 05:59:00;;;;;;;1.4;1.4;;;;;;;5.9;100.0;99220;;;;
2023/01/09 06:00:00;;;;;;;1.4;1.4;;;;;;;5.9;100.0;99220;;;;
2023/01/09 06:01:00;;;;;;;1.4;1.4;;;;;;;6.0;100.0;99220;;;;
2023/01/09 06:02:00;;;;;;;1.4;1.4;;;;;;;6.0;100.0;99220;;;;
2023/01/09 06:03:00;;;;;;;1.4;1.4;;;;;;;6.0;100.0;99220;;;;
2023/01/09 06:04:00;;;;;;;1.4;1.4;;;;;;;6.0;100.0;99220;;;;
2023/01/09 06:05:00;;;;;;;1.4;1.4;;;;;;;6.0;100.0;99220;;;;
2023/01/09 06:06:00;;;;;;;1.4;1.4;;;;;;;6.0;100.0;99220;;;;
2023/01/09 06:07:00;;;;;;;1.4;1.4;;;;;;;5.9;100.0;99220;;;;
2023/01/09 06:08:00;;;;;;;1.4;1.4;;;;;;;5.9;100.0;99220;;;;
2023/01/09 06:09:02;;;;;;;1.4;1.4;;;;;;;6.0;100.0;99220;;;;
2023/01/09 06:10:00;;;;;;;1.4;1.4;;;;;;;6.0;100.0;99220;;;;
2023/01/09 06:11:00;;;;;;;1.4;1.4;;;;;;;5.9;100.0;99210;;;;
2023/01/09 06:12:00;;;;;;;1.4;1.4;;;;;;;5.9;100.0;99210;;;;
2023/01/09 06:13:00;;;;;;;1.4;1.4;;;;;;;6.0;100.0;99210;;;;
2023/01/09 06:14:01;;;;;;;1.4;1.4;;;;;;;6.0;100.0;99210;;;;
2023/01/09 06:15:00;;;;;;;1.4;1.4;;;;;;;6.0;100.0;99210;;;;
2023/01/09 06:16:00;;;;;;;1.4;1.4;;;;;;;6.0;100.0;99210;;;;
2023/01/09 06:17:00;;;;;;;1.4;1.4;;;;;;;6.1;100.0;99210;;;;
2023/01/09 06:18:00;;;;;;;1.4;1.4;;;;;;;6.1;100.0;99210;;;;
2023/01/09 06:19:00;;;;;;;1.6;1.6;;;;;;;6.1;100.0;99210;;;;
2023/01/09 06:20:00;;;;;;;1.6;1.6;;;;;;;6.1;100.0;99210;;;;
2023/01/09 06:21:00;;;;;;;1.6;1.6;;;;;;;6.1;100.0;99210;;;;
2023/01/09 06:22:00;;;;;;;1.6;1.6;;;;;;;6.1;100.0;99210;;;;
2023/01/09 06:23:00;;;;;;;1.6;1.6;;;;;;;6.1;100.0;99210;;;;
2023/01/09 06:24:00;;;;;;;1.6;1.6;;;;;;;6.1;100.0;99210;;;;
2023/01/09 06:25:00;;;;;;;1.6;1.6;;;;;;;6.1;100.0;99220;;;;
2023/01/09 06:26:00;;;;;;;1.6;1.6;;;;;;;6.1;100.0;99220;;;;
2023/01/09 06:27:00;;;;;;;1.6;1.6;;;;;;;6.1;100.0;99220;;;;
2023/01/09 06:28:00;;;;;;;1.6;1.6;;;;;;;6.1;100.0;99220;;;;
2023/01/09 06:29:00;;;;;;;1.6;1.6;;;;;;;6.1;100.0;99210;;;;
2023/01/09 06:30:00;;;;;;;1.6;1.6;;;;;;;6.1;100.0;99210;;;;
2023/01/09 06:31:00;;;;;;;1.6;1.6;;;;;;;6.1;100.0;99220;;;;
2023/01/09 06:32:00;;;;;;;1.6;1.6;;;;;;;6.1;100.0;99220;;;;
2023/01/09 06:33:00;;;;;;;1.6;1.6;;;;;;;6.1;100.0;99220;;;;
2023/01/09 06:34:00;;;;;;;1.6;1.6;;;;;;;6.1;100.0;99220;;;;
2023/01/09 06:35:00;;;;;;;1.6;1.6;;;;;;;6.2;100.0;99210;;;;
2023/01/09 06:36:00;;;;;;;1.6;1.6;;;;;;;6.2;100.0;99210;;;;
2023/01/09 06:37:00;;;;;;;1.6;1.6;;;;;;;6.2;100.0;99210;;;;
2023/01/09 06:38:02;;;;;;;1.6;1.6;;;;;;;6.2;100.0;99210;;;;